sensor_id;sensor_type;location;lat;lon;timestamp;pressure;altitude;pressure_sealevel;temperature;humidity
20145;BME280;10233;50.814;6.590;2022-12-10T00:00:21;99419.69;;;0.36;100.00
20145;BME280;10233;50.814;6.590;2022-12-10T00:01:23;99419.66;;;0.28;100.00
20145;BME280;10233;50.814;6.590;2022-12-10T00:02:23;99425.03;;;0.26;100.00
20145;BME280;10233;50.814;6.590;2022-12-10T00:03:24;99425.38;;;0.31;100.00
20145;BME280;10233;50.814;6.590;2022-12-10T00:04:24;99427.03;;;0.32;100.00
20145;BME280;10233;50.814;6.590;2022-12-10T00:05:25;99430.28;;;0.34;100.00
20145;BME280;10233;50.814;6.590;2022-12-10T00:06:28;99425.91;;;0.35;100.00
20145;BME280;10233;50.814;6.590;2022-12-10T00:07:29;99424.91;;;0.36;100.00
20145;BME280;10233;50.814;6.590;2022-12-10T00:08:29;99421.94;;;0.31;100.00
20145;BME280;10233;50.814;6.590;2022-12-10T00:09:30;99418.50;;;0.30;100.00
20145;BME280;10233;50.814;6.590;2022-12-10T00:10:30;99425.69;;;0.28;100.00
20145;BME280;10233;50.814;6.590;2022-12-10T00:11:31;99418.50;;;0.30;100.00
20145;BME280;10233;50.814;6.590;2022-12-10T00:12:32;99425.03;;;0.26;100.00
20145;BME280;10233;50.814;6.590;2022-12-10T00:13:33;99416.88;;;0.29;100.00
20145;BME280;10233;50.814;6.590;2022-12-10T00:14:34;99424.06;;;0.28;100.00
20145;BME280;10233;50.814;6.590;2022-12-10T00:15:35;99425.34;;;0.23;100.00
20145;BME280;10233;50.814;6.590;2022-12-10T00:16:36;99428.78;;;0.24;100.00
20145;BME280;10233;50.814;6.590;2022-12-10T00:17:37;99428.78;;;0.24;100.00
20145;BME280;10233;50.814;6.590;2022-12-10T00:18:38;99423.53;;;0.24;100.00
20145;BME280;10233;50.814;6.590;2022-12-10T00:19:38;99425.19;;;0.25;100.00
20145;BME280;10233;50.814;6.590;2022-12-10T00:20:39;99428.63;;;0.25;100.00
20145;BME280;10233;50.814;6.590;2022-12-10T00:21:39;99429.75;;;0.23;100.00
20145;BME280;10233;50.814;6.590;2022-12-10T00:22:40;99433.63;;;0.19;100.00
20145;BME280;10233;50.814;6.590;2022-12-10T00:23:41;99435.66;;;0.25;100.00
20145;BME280;10233;50.814;6.590;2022-12-10T00:24:41;99429.25;;;0.19;100.00
20145;BME280;10233;50.814;6.590;2022-12-10T00:25:42;99437.09;;;0.19;100.00
20145;BME280;10233;50.814;6.590;2022-12-10T00:26:42;99428.41;;;0.19;100.00
20145;BME280;10233;50.814;6.590;2022-12-10T00:27:43;99434.00;;;0.24;100.00
20145;BME280;10233;50.814;6.590;2022-12-10T00:28:44;99432.34;;;0.23;100.00
20145;BME280;10233;50.814;6.590;2022-12-10T00:29:45;99426.63;;;0.19;100.00
20145;BME280;10233;50.814;6.590;2022-12-10T00:30:46;99425.34;;;0.23;100.00
20145;BME280;10233;50.814;6.590;2022-12-10T00:31:46;99424.06;;;0.28;100.00
20145;BME280;10233;50.814;6.590;2022-12-10T00:32:46;99430.88;;;0.20;100.00
20145;BME280;10233;50.814;6.590;2022-12-10T00:33:48;99426.69;;;0.28;100.00
20145;BME280;10233;50.814;6.590;2022-12-10T00:34:49;99431.56;;;0.22;100.00
20145;BME280;10233;50.814;6.590;2022-12-10T00:35:49;99430.22;;;0.18;100.00
20145;BME280;10233;50.814;6.590;2022-12-10T00:36:50;99429.44;;;0.26;100.00
20145;BME280;10233;50.814;6.590;2022-12-10T00:37:51;99430.44;;;0.25;100.00
20145;BME280;10233;50.814;6.590;2022-12-10T00:38:51;99432.84;;;0.26;100.00
20145;BME280;10233;50.814;6.590;2022-12-10T00:39:53;99427.47;;;0.28;100.00
20145;BME280;10233;50.814;6.590;2022-12-10T00:40:53;99432.34;;;0.23;100.00
20145;BME280;10233;50.814;6.590;2022-12-10T00:41:53;99430.44;;;0.25;100.00
20145;BME280;10233;50.814;6.590;2022-12-10T00:42:54;99426.84;;;0.26;100.00
20145;BME280;10233;50.814;6.590;2022-12-10T00:43:54;99438.91;;;0.27;100.00
20145;BME280;10233;50.814;6.590;2022-12-10T00:44:55;99433.88;;;0.33;100.00
20145;BME280;10233;50.814;6.590;2022-12-10T00:45:57;99428.78;;;0.24;100.00
20145;BME280;10233;50.814;6.590;2022-12-10T00:46:57;99434.97;;;0.15;100.00
20145;BME280;10233;50.814;6.590;2022-12-10T00:47:58;99437.38;;;0.16;100.00
20145;BME280;10233;50.814;6.590;2022-12-10T00:48:58;99434.13;;;0.14;100.00
20145;BME280;10233;50.814;6.590;2022-12-10T00:50:00;99433.97;;;0.16;100.00
20145;BME280;10233;50.814;6.590;2022-12-10T00:51:09;99434.78;;;0.16;100.00
20145;BME280;10233;50.814;6.590;2022-12-10T00:52:10;99437.72;;;0.13;100.00
20145;BME280;10233;50.814;6.590;2022-12-10T00:53:10;99431.38;;;0.16;100.00
20145;BME280;10233;50.814;6.590;2022-12-10T00:54:10;99430.53;;;0.15;100.00
20145;BME280;10233;50.814;6.590;2022-12-10T00:55:11;99428.59;;;0.17;100.00
20145;BME280;10233;50.814;6.590;2022-12-10T00:56:14;99432.84;;;0.18;100.00
20145;BME280;10233;50.814;6.590;2022-12-10T00:57:15;99433.00;;;0.17;100.00
20145;BME280;10233;50.814;6.590;2022-12-10T00:58:16;99434.63;;;0.18;100.00
20145;BME280;10233;50.814;6.590;2022-12-10T00:59:17;99430.53;;;0.15;100.00
20145;BME280;10233;50.814;6.590;2022-12-10T01:00:17;99431.22;;;0.17;100.00
20145;BME280;10233;50.814;6.590;2022-12-10T01:01:31;99436.59;;;0.16;100.00
20145;BME280;10233;50.814;6.590;2022-12-10T01:02:32;99430.53;;;0.15;100.00
20145;BME280;10233;50.814;6.590;2022-12-10T01:03:32;99435.56;;;0.09;100.00
20145;BME280;10233;50.814;6.590;2022-12-10T01:04:33;99436.88;;;0.05;100.00
20145;BME280;10233;50.814;6.590;2022-12-10T01:05:34;99438.03;;;0.10;100.00
20145;BME280;10233;50.814;6.590;2022-12-10T01:06:46;99437.81;;;0.04;100.00
20145;BME280;10233;50.814;6.590;2022-12-10T01:07:46;99438.94;;;0.01;100.00
20145;BME280;10233;50.814;6.590;2022-12-10T01:08:48;99430.63;;;-0.02;100.00
20145;BME280;10233;50.814;6.590;2022-12-10T01:09:49;99433.06;;;-0.01;100.00
20145;BME280;10233;50.814;6.590;2022-12-10T01:10:53;99438.28;;;-0.01;100.00
20145;BME280;10233;50.814;6.590;2022-12-10T01:11:55;99433.69;;;-0.07;100.00
20145;BME280;10233;50.814;6.590;2022-12-10T01:12:56;99439.44;;;-0.03;100.00
20145;BME280;10233;50.814;6.590;2022-12-10T01:13:58;99438.75;;;-0.05;100.00
20145;BME280;10233;50.814;6.590;2022-12-10T01:14:59;99432.59;;;0.04;100.00
20145;BME280;10233;50.814;6.590;2022-12-10T01:16:01;99437.47;;;-0.01;100.00
20145;BME280;10233;50.814;6.590;2022-12-10T01:17:04;99436.81;;;-0.03;100.00
20145;BME280;10233;50.814;6.590;2022-12-10T01:18:05;99442.19;;;-0.05;100.00
20145;BME280;10233;50.814;6.590;2022-12-10T01:19:06;99439.38;;;-0.11;100.00
20145;BME280;10233;50.814;6.590;2022-12-10T01:20:08;99451.25;;;-0.17;100.00
20145;BME280;10233;50.814;6.590;2022-12-10T01:21:12;99450.94;;;-0.14;100.00
20145;BME280;10233;50.814;6.590;2022-12-10T01:22:15;99450.13;;;-0.14;100.00
20145;BME280;10233;50.814;6.590;2022-12-10T01:23:15;99451.44;;;-0.10;100.00
20145;BME280;10233;50.814;6.590;2022-12-10T01:24:16;99450.13;;;-0.14;100.00
20145;BME280;10233;50.814;6.590;2022-12-10T01:25:18;99445.88;;;-0.15;100.00
20145;BME280;10233;50.814;6.590;2022-12-10T01:26:22;99450.94;;;-0.14;100.00
20145;BME280;10233;50.814;6.590;2022-12-10T01:27:23;99453.41;;;-0.12;100.00
20145;BME280;10233;50.814;6.590;2022-12-10T01:28:24;99461.13;;;-0.03;100.00
20145;BME280;10233;50.814;6.590;2022-12-10T01:29:24;99452.00;;;0.01;100.00
20145;BME280;10233;50.814;6.590;2022-12-10T01:30:25;99453.09;;;-0.09;100.00
20145;BME280;10233;50.814;6.590;2022-12-10T01:31:32;99454.38;;;-0.13;100.00
20145;BME280;10233;50.814;6.590;2022-12-10T01:32:33;99455.66;;;-0.17;100.00
20145;BME280;10233;50.814;6.590;2022-12-10T01:33:35;99459.09;;;-0.17;100.00
20145;BME280;10233;50.814;6.590;2022-12-10T01:34:35;99456.63;;;-0.18;100.00
20145;BME280;10233;50.814;6.590;2022-12-10T01:35:37;99463.19;;;-0.14;100.00
20145;BME280;10233;50.814;6.590;2022-12-10T01:36:40;99457.44;;;-0.18;100.00
20145;BME280;10233;50.814;6.590;2022-12-10T01:37:41;99468.19;;;-0.21;100.00
20145;BME280;10233;50.814;6.590;2022-12-10T01:38:42;99460.88;;;-0.17;100.00
20145;BME280;10233;50.814;6.590;2022-12-10T01:39:42;99460.72;;;-0.16;100.00
20145;BME280;10233;50.814;6.590;2022-12-10T01:40:43;99462.38;;;-0.15;100.00
20145;BME280;10233;50.814;6.590;2022-12-10T01:41:48;99464.47;;;-0.18;100.00
20145;BME280;10233;50.814;6.590;2022-12-10T01:42:51;99461.50;;;-0.23;100.00
20145;BME280;10233;50.814;6.590;2022-12-10T01:43:58;99464.47;;;-0.18;100.00
20145;BME280;10233;50.814;6.590;2022-12-10T01:45:07;99473.56;;;-0.22;100.00
20145;BME280;10233;50.814;6.590;2022-12-10T01:46:08;99464.91;;;-0.23;100.00
20145;BME280;10233;50.814;6.590;2022-12-10T01:47:09;99462.16;;;-0.21;100.00
20145;BME280;10233;50.814;6.590;2022-12-10T01:48:09;99458.75;;;-0.22;100.00
20145;BME280;10233;50.814;6.590;2022-12-10T01:49:14;99464.03;;;-0.31;100.00
20145;BME280;10233;50.814;6.590;2022-12-10T01:50:15;99461.28;;;-0.30;100.00
20145;BME280;10233;50.814;6.590;2022-12-10T01:51:17;99470.31;;;-0.24;100.00
20145;BME280;10233;50.814;6.590;2022-12-10T01:52:18;99470.88;;;-0.30;100.00
20145;BME280;10233;50.814;6.590;2022-12-10T01:53:19;99475.31;;;-0.31;100.00
20145;BME280;10233;50.814;6.590;2022-12-10T01:54:26;99474.47;;;-0.31;100.00
20145;BME280;10233;50.814;6.590;2022-12-10T01:55:44;99472.34;;;-0.36;100.00
20145;BME280;10233;50.814;6.590;2022-12-10T01:56:51;99472.34;;;-0.36;100.00
20145;BME280;10233;50.814;6.590;2022-12-10T01:57:54;99471.50;;;-0.36;100.00
20145;BME280;10233;50.814;6.590;2022-12-10T01:58:56;99475.09;;;-0.37;100.00
20145;BME280;10233;50.814;6.590;2022-12-10T01:59:58;99477.84;;;-0.39;100.00
20145;BME280;10233;50.814;6.590;2022-12-10T02:01:26;99475.75;;;-0.35;100.00
20145;BME280;10233;50.814;6.590;2022-12-10T02:02:36;99480.31;;;-0.37;100.00
20145;BME280;10233;50.814;6.590;2022-12-10T02:03:55;99483.38;;;-0.42;100.00
20145;BME280;10233;50.814;6.590;2022-12-10T02:07:27;99481.94;;;-0.36;100.00
20145;BME280;10233;50.814;6.590;2022-12-10T02:08:44;99485.53;;;-0.37;100.00
20145;BME280;10233;50.814;6.590;2022-12-10T02:11:42;99481.94;;;-0.36;100.00
20145;BME280;10233;50.814;6.590;2022-12-10T02:12:58;99480.31;;;-0.37;100.00
20145;BME280;10233;50.814;6.590;2022-12-10T02:14:08;99486.16;;;-0.43;100.00
20145;BME280;10233;50.814;6.590;2022-12-10T02:15:15;99485.47;;;-0.45;100.00
20145;BME280;10233;50.814;6.590;2022-12-10T02:16:34;99487.34;;;-0.55;100.00
20145;BME280;10233;50.814;6.590;2022-12-10T02:17:42;99484.47;;;-0.44;100.00
20145;BME280;10233;50.814;6.590;2022-12-10T02:18:57;99485.97;;;-0.42;100.00
20145;BME280;10233;50.814;6.590;2022-12-10T02:21:13;99482.50;;;-0.50;100.00
20145;BME280;10233;50.814;6.590;2022-12-10T02:22:16;99485.25;;;-0.52;100.00
20145;BME280;10233;50.814;6.590;2022-12-10T02:23:24;99491.94;;;-0.49;100.00
20145;BME280;10233;50.814;6.590;2022-12-10T02:24:28;99481.69;;;-0.51;100.00
20145;BME280;10233;50.814;6.590;2022-12-10T02:25:53;99481.09;;;-0.62;100.00
20145;BME280;10233;50.814;6.590;2022-12-10T02:27:16;99484.06;;;-0.57;100.00
20145;BME280;10233;50.814;6.590;2022-12-10T02:28:46;99482.50;;;-0.68;100.00
20145;BME280;10233;50.814;6.590;2022-12-10T02:29:51;99486.09;;;-0.69;100.00
20145;BME280;10233;50.814;6.590;2022-12-10T02:30:52;99489.44;;;-0.59;100.00
20145;BME280;10233;50.814;6.590;2022-12-10T02:32:03;99486.16;;;-0.61;100.00
20145;BME280;10233;50.814;6.590;2022-12-10T02:33:07;99483.03;;;-0.64;100.00
20145;BME280;10233;50.814;6.590;2022-12-10T02:34:09;99485.47;;;-0.63;100.00
20145;BME280;10233;50.814;6.590;2022-12-10T02:35:19;99488.09;;;-0.63;100.00
20145;BME280;10233;50.814;6.590;2022-12-10T02:36:23;99491.06;;;-0.58;100.00
20145;BME280;10233;50.814;6.590;2022-12-10T02:37:29;99487.06;;;-0.52;100.00
20145;BME280;10233;50.814;6.590;2022-12-10T02:38:36;99488.97;;;-0.54;100.00
20145;BME280;10233;50.814;6.590;2022-12-10T02:39:43;99483.25;;;-0.58;100.00
20145;BME280;10233;50.814;6.590;2022-12-10T02:40:48;99491.22;;;-0.59;100.00
20145;BME280;10233;50.814;6.590;2022-12-10T02:41:53;99488.53;;;-0.50;100.00
20145;BME280;10233;50.814;6.590;2022-12-10T02:42:56;99479.88;;;-0.50;100.00
20145;BME280;10233;50.814;6.590;2022-12-10T02:43:59;99487.03;;;-0.35;100.00
20145;BME280;10233;50.814;6.590;2022-12-10T02:45:01;99488.16;;;-0.37;100.00
20145;BME280;10233;50.814;6.590;2022-12-10T02:46:03;99485.81;;;-0.40;100.00
20145;BME280;10233;50.814;6.590;2022-12-10T02:47:05;99484.91;;;-0.31;100.00
20145;BME280;10233;50.814;6.590;2022-12-10T02:48:11;99484.03;;;-0.40;100.00
20145;BME280;10233;50.814;6.590;2022-12-10T02:49:17;99487.22;;;-0.28;100.00
20145;BME280;10233;50.814;6.590;2022-12-10T02:50:19;99488.25;;;-0.21;100.00
20145;BME280;10233;50.814;6.590;2022-12-10T02:51:23;99489.38;;;-0.24;100.00
20145;BME280;10233;50.814;6.590;2022-12-10T02:52:24;99488.22;;;-0.29;100.00
20145;BME280;10233;50.814;6.590;2022-12-10T02:53:27;99491.19;;;-0.24;100.00
20145;BME280;10233;50.814;6.590;2022-12-10T02:54:48;99490.44;;;-0.17;100.00
20145;BME280;10233;50.814;6.590;2022-12-10T02:56:23;99486.72;;;-0.06;100.00
20145;BME280;10233;50.814;6.590;2022-12-10T03:00:09;99491.28;;;-0.08;100.00
20145;BME280;10233;50.814;6.590;2022-12-10T03:05:42;99502.50;;;0.10;100.00
20145;BME280;10233;50.814;6.590;2022-12-10T03:06:50;99495.59;;;0.01;100.00
20145;BME280;10233;50.814;6.590;2022-12-10T03:08:05;99494.47;;;0.03;100.00
20145;BME280;10233;50.814;6.590;2022-12-10T03:09:22;99509.50;;;0.09;100.00
20145;BME280;10233;50.814;6.590;2022-12-10T03:10:28;99500.34;;;0.05;100.00
20145;BME280;10233;50.814;6.590;2022-12-10T03:11:31;99503.66;;;0.15;100.00
20145;BME280;10233;50.814;6.590;2022-12-10T03:12:36;99503.16;;;0.12;100.00
20145;BME280;10233;50.814;6.590;2022-12-10T03:14:47;99504.50;;;0.16;100.00
20145;BME280;10233;50.814;6.590;2022-12-10T03:15:49;99510.72;;;0.23;100.00
20145;BME280;10233;50.814;6.590;2022-12-10T03:16:56;99503.25;;;0.28;100.00
20145;BME280;10233;50.814;6.590;2022-12-10T03:17:58;99511.19;;;0.18;100.00
20145;BME280;10233;50.814;6.590;2022-12-10T03:19:05;99511.72;;;0.22;100.00
20145;BME280;10233;50.814;6.590;2022-12-10T03:20:08;99510.94;;;0.29;100.00
20145;BME280;10233;50.814;6.590;2022-12-10T03:21:11;99505.50;;;0.23;100.00
20145;BME280;10233;50.814;6.590;2022-12-10T03:22:16;99505.06;;;0.28;100.00
20145;BME280;10233;50.814;6.590;2022-12-10T03:23:18;99509.59;;;0.25;100.00
20145;BME280;10233;50.814;6.590;2022-12-10T03:24:20;99500.28;;;0.23;100.00
20145;BME280;10233;50.814;6.590;2022-12-10T03:25:27;99502.38;;;0.19;100.00
20145;BME280;10233;50.814;6.590;2022-12-10T03:26:30;99504.69;;;0.22;100.00
20145;BME280;10233;50.814;6.590;2022-12-10T03:27:31;99499.16;;;0.25;100.00
20145;BME280;10233;50.814;6.590;2022-12-10T03:28:38;99499.47;;;0.22;100.00
20145;BME280;10233;50.814;6.590;2022-12-10T03:29:46;99498.34;;;0.25;100.00
20145;BME280;10233;50.814;6.590;2022-12-10T03:30:47;99500.78;;;0.26;100.00
20145;BME280;10233;50.814;6.590;2022-12-10T03:31:50;99497.72;;;0.31;100.00
20145;BME280;10233;50.814;6.590;2022-12-10T03:32:53;99501.09;;;0.23;100.00
20145;BME280;10233;50.814;6.590;2022-12-10T03:33:54;99498.94;;;0.19;100.00
20145;BME280;10233;50.814;6.590;2022-12-10T03:34:56;99504.22;;;0.27;100.00
20145;BME280;10233;50.814;6.590;2022-12-10T03:35:58;99500.78;;;0.26;100.00
20145;BME280;10233;50.814;6.590;2022-12-10T03:36:59;99505.69;;;0.29;100.00
20145;BME280;10233;50.814;6.590;2022-12-10T03:38:01;99512.56;;;0.30;100.00
20145;BME280;10233;50.814;6.590;2022-12-10T03:39:02;99507.13;;;0.24;100.00
20145;BME280;10233;50.814;6.590;2022-12-10T03:40:04;99508.59;;;0.18;100.00
20145;BME280;10233;50.814;6.590;2022-12-10T03:41:06;99506.13;;;0.17;100.00
20145;BME280;10233;50.814;6.590;2022-12-10T03:42:07;99506.63;;;0.20;100.00
20145;BME280;10233;50.814;6.590;2022-12-10T03:43:07;99509.44;;;0.27;100.00
20145;BME280;10233;50.814;6.590;2022-12-10T03:44:08;99504.06;;;0.28;100.00
20145;BME280;10233;50.814;6.590;2022-12-10T03:45:09;99501.75;;;0.25;100.00
20145;BME280;10233;50.814;6.590;2022-12-10T03:46:11;99503.88;;;0.22;100.00
20145;BME280;10233;50.814;6.590;2022-12-10T03:47:13;99510.72;;;0.23;100.00
20145;BME280;10233;50.814;6.590;2022-12-10T03:48:14;99509.94;;;0.22;100.00
20145;BME280;10233;50.814;6.590;2022-12-10T03:49:15;99517.00;;;0.30;100.00
20145;BME280;10233;50.814;6.590;2022-12-10T03:50:16;99509.94;;;0.30;100.00
20145;BME280;10233;50.814;6.590;2022-12-10T03:51:17;99511.75;;;0.30;100.00
20145;BME280;10233;50.814;6.590;2022-12-10T03:52:17;99508.94;;;0.23;100.00
20145;BME280;10233;50.814;6.590;2022-12-10T03:53:18;99513.19;;;0.24;100.00
20145;BME280;10233;50.814;6.590;2022-12-10T03:54:19;99510.56;;;0.24;100.00
20145;BME280;10233;50.814;6.590;2022-12-10T03:55:19;99513.34;;;0.23;100.00
20145;BME280;10233;50.814;6.590;2022-12-10T03:56:21;99511.91;;;0.28;100.00
20145;BME280;10233;50.814;6.590;2022-12-10T03:57:21;99510.44;;;0.34;100.00
20145;BME280;10233;50.814;6.590;2022-12-10T03:58:22;99513.69;;;0.28;100.00
20145;BME280;10233;50.814;6.590;2022-12-10T03:59:22;99505.69;;;0.29;100.00
20145;BME280;10233;50.814;6.590;2022-12-10T04:00:23;99512.72;;;0.29;100.00
20145;BME280;10233;50.814;6.590;2022-12-10T04:01:23;99505.84;;;0.28;100.00
20145;BME280;10233;50.814;6.590;2022-12-10T04:02:23;99507.19;;;0.32;100.00
20145;BME280;10233;50.814;6.590;2022-12-10T04:03:24;99511.59;;;0.31;100.00
20145;BME280;10233;50.814;6.590;2022-12-10T04:04:24;99512.25;;;0.33;100.00
20145;BME280;10233;50.814;6.590;2022-12-10T04:05:25;99505.56;;;0.39;100.00
20145;BME280;10233;50.814;6.590;2022-12-10T04:06:26;99505.28;;;0.42;100.00
20145;BME280;10233;50.814;6.590;2022-12-10T04:07:26;99510.16;;;0.37;100.00
20145;BME280;10233;50.814;6.590;2022-12-10T04:08:27;99509.31;;;0.36;100.00
20145;BME280;10233;50.814;6.590;2022-12-10T04:09:27;99509.50;;;0.35;100.00
20145;BME280;10233;50.814;6.590;2022-12-10T04:10:27;99510.50;;;0.42;100.00
20145;BME280;10233;50.814;6.590;2022-12-10T04:11:28;99507.25;;;0.40;100.00
20145;BME280;10233;50.814;6.590;2022-12-10T04:12:28;99510.00;;;0.38;100.00
20145;BME280;10233;50.814;6.590;2022-12-10T04:13:31;99512.97;;;0.43;100.00
20145;BME280;10233;50.814;6.590;2022-12-10T04:14:50;99508.19;;;0.39;100.00
20145;BME280;10233;50.814;6.590;2022-12-10T04:16:09;99512.97;;;0.43;100.00
20145;BME280;10233;50.814;6.590;2022-12-10T04:17:28;99517.69;;;0.40;100.00
20145;BME280;10233;50.814;6.590;2022-12-10T04:18:28;99513.59;;;0.38;100.00
20145;BME280;10233;50.814;6.590;2022-12-10T04:19:28;99519.03;;;0.44;100.00
20145;BME280;10233;50.814;6.590;2022-12-10T04:20:29;99523.41;;;0.43;100.00
20145;BME280;10233;50.814;6.590;2022-12-10T04:21:48;99516.75;;;0.49;100.00
20145;BME280;10233;50.814;6.590;2022-12-10T04:23:07;99519.03;;;0.52;100.00
20145;BME280;10233;50.814;6.590;2022-12-10T04:24:29;99514.78;;;0.51;100.00
20145;BME280;10233;50.814;6.590;2022-12-10T04:25:48;99517.75;;;0.56;100.00
20145;BME280;10233;50.814;6.590;2022-12-10T04:27:13;99526.72;;;0.53;100.00
20145;BME280;10233;50.814;6.590;2022-12-10T04:28:16;99517.09;;;0.54;100.00
20145;BME280;10233;50.814;6.590;2022-12-10T04:29:17;99524.78;;;0.55;100.00
20145;BME280;10233;50.814;6.590;2022-12-10T04:30:17;99522.63;;;0.51;100.00
20145;BME280;10233;50.814;6.590;2022-12-10T04:31:18;99529.19;;;0.55;100.00
20145;BME280;10233;50.814;6.590;2022-12-10T04:32:19;99532.66;;;0.63;100.00
20145;BME280;10233;50.814;6.590;2022-12-10T04:33:20;99526.44;;;0.57;100.00
20145;BME280;10233;50.814;6.590;2022-12-10T04:34:21;99528.06;;;0.57;100.00
20145;BME280;10233;50.814;6.590;2022-12-10T04:35:22;99518.06;;;0.53;100.00
20145;BME280;10233;50.814;6.590;2022-12-10T04:36:22;99525.75;;;0.54;100.00
20145;BME280;10233;50.814;6.590;2022-12-10T04:37:23;99521.56;;;0.62;100.00
20145;BME280;10233;50.814;6.590;2022-12-10T04:38:24;99520.22;;;0.65;100.00
20145;BME280;10233;50.814;6.590;2022-12-10T04:39:24;99521.91;;;0.74;100.00
20145;BME280;10233;50.814;6.590;2022-12-10T04:40:25;99522.06;;;0.73;100.00
20145;BME280;10233;50.814;6.590;2022-12-10T04:41:25;99528.59;;;0.69;100.00
20145;BME280;10233;50.814;6.590;2022-12-10T04:42:26;99522.41;;;0.70;100.00
20145;BME280;10233;50.814;6.590;2022-12-10T04:43:26;99523.88;;;0.73;100.00
20145;BME280;10233;50.814;6.590;2022-12-10T04:44:27;99526.00;;;0.77;100.00
20145;BME280;10233;50.814;6.590;2022-12-10T04:45:27;99524.38;;;0.76;100.00
20145;BME280;10233;50.814;6.590;2022-12-10T04:46:28;99523.72;;;0.74;100.00
20145;BME280;10233;50.814;6.590;2022-12-10T04:47:28;99528.28;;;0.72;100.00
20145;BME280;10233;50.814;6.590;2022-12-10T04:48:29;99524.69;;;0.73;100.00
20145;BME280;10233;50.814;6.590;2022-12-10T04:49:29;99523.88;;;0.73;100.00
20145;BME280;10233;50.814;6.590;2022-12-10T04:50:30;99525.03;;;0.78;100.00
20145;BME280;10233;50.814;6.590;2022-12-10T04:51:31;99519.03;;;0.86;100.00
20145;BME280;10233;50.814;6.590;2022-12-10T04:52:31;99520.81;;;0.85;100.00
20145;BME280;10233;50.814;6.590;2022-12-10T04:53:32;99522.94;;;0.82;100.00
20145;BME280;10233;50.814;6.590;2022-12-10T04:54:32;99526.69;;;0.79;100.00
20145;BME280;10233;50.814;6.590;2022-12-10T04:55:33;99523.25;;;0.78;100.00
20145;BME280;10233;50.814;6.590;2022-12-10T04:56:34;99523.88;;;0.73;100.00
20145;BME280;10233;50.814;6.590;2022-12-10T04:57:34;99524.22;;;0.77;100.00
20145;BME280;10233;50.814;6.590;2022-12-10T04:58:35;99527.81;;;0.84;100.00
20145;BME280;10233;50.814;6.590;2022-12-10T04:59:35;99523.56;;;0.83;100.00
20145;BME280;10233;50.814;6.590;2022-12-10T05:00:36;99529.31;;;0.87;100.00
20145;BME280;10233;50.814;6.590;2022-12-10T05:01:37;99524.25;;;0.86;100.00
20145;BME280;10233;50.814;6.590;2022-12-10T05:02:37;99528.66;;;0.85;100.00
20145;BME280;10233;50.814;6.590;2022-12-10T05:03:38;99528.97;;;0.82;100.00
20145;BME280;10233;50.814;6.590;2022-12-10T05:04:39;99524.72;;;0.81;100.00
20145;BME280;10233;50.814;6.590;2022-12-10T05:05:39;99525.53;;;0.82;100.00
20145;BME280;10233;50.814;6.590;2022-12-10T05:06:40;99519.50;;;0.81;100.00
20145;BME280;10233;50.814;6.590;2022-12-10T05:07:41;99519.97;;;0.84;100.00
20145;BME280;10233;50.814;6.590;2022-12-10T05:08:42;99519.69;;;0.88;100.00
20145;BME280;10233;50.814;6.590;2022-12-10T05:09:43;99517.56;;;0.91;100.00
20145;BME280;10233;50.814;6.590;2022-12-10T05:10:43;99515.63;;;0.93;100.00
20145;BME280;10233;50.814;6.590;2022-12-10T05:11:44;99513.97;;;0.92;100.00
20145;BME280;10233;50.814;6.590;2022-12-10T05:12:44;99509.41;;;0.94;100.00
20145;BME280;10233;50.814;6.590;2022-12-10T05:13:45;99513.00;;;0.93;100.00
20145;BME280;10233;50.814;6.590;2022-12-10T05:14:46;99514.31;;;0.97;100.00
20145;BME280;10233;50.814;6.590;2022-12-10T05:15:46;99523.63;;;0.92;100.00
20145;BME280;10233;50.814;6.590;2022-12-10T05:16:49;99527.38;;;0.97;100.00
20145;BME280;10233;50.814;6.590;2022-12-10T05:17:50;99525.28;;;1.08;100.00
20145;BME280;10233;50.814;6.590;2022-12-10T05:18:53;99529.88;;;1.07;100.00
20145;BME280;10233;50.814;6.590;2022-12-10T05:19:53;99530.63;;;0.91;100.00
20145;BME280;10233;50.814;6.590;2022-12-10T05:20:58;99523.47;;;1.01;100.00
20145;BME280;10233;50.814;6.590;2022-12-10T05:21:59;99531.00;;;1.04;100.00
20145;BME280;10233;50.814;6.590;2022-12-10T05:23:18;99530.34;;;1.02;100.00
20145;BME280;10233;50.814;6.590;2022-12-10T05:24:27;99527.06;;;1.00;100.00
20145;BME280;10233;50.814;6.590;2022-12-10T05:25:28;99523.47;;;1.01;100.00
20145;BME280;10233;50.814;6.590;2022-12-10T05:26:28;99532.94;;;0.94;100.00
20145;BME280;10233;50.814;6.590;2022-12-10T05:27:33;99523.81;;;0.98;100.00
20145;BME280;10233;50.814;6.590;2022-12-10T05:28:36;99524.25;;;0.93;100.00
20145;BME280;10233;50.814;6.590;2022-12-10T05:29:37;99523.78;;;0.90;100.00
20145;BME280;10233;50.814;6.590;2022-12-10T05:30:38;99532.59;;;0.89;100.00
20145;BME280;10233;50.814;6.590;2022-12-10T05:31:38;99529.84;;;0.91;100.00
20145;BME280;10233;50.814;6.590;2022-12-10T05:32:38;99524.75;;;0.97;100.00
20145;BME280;10233;50.814;6.590;2022-12-10T05:33:39;99524.13;;;0.95;100.00
20145;BME280;10233;50.814;6.590;2022-12-10T05:34:39;99521.69;;;1.02;100.00
20145;BME280;10233;50.814;6.590;2022-12-10T05:35:40;99528.53;;;1.02;100.00
20145;BME280;10233;50.814;6.590;2022-12-10T05:36:40;99532.16;;;1.09;100.00
20145;BME280;10233;50.814;6.590;2022-12-10T05:37:41;99525.13;;;1.10;100.00
20145;BME280;10233;50.814;6.590;2022-12-10T05:38:41;99524.16;;;1.11;100.00
20145;BME280;10233;50.814;6.590;2022-12-10T05:39:42;99520.53;;;1.12;100.00
20145;BME280;10233;50.814;6.590;2022-12-10T05:40:42;99528.56;;;1.11;100.00
20145;BME280;10233;50.814;6.590;2022-12-10T05:41:43;99521.69;;;1.09;100.00
20145;BME280;10233;50.814;6.590;2022-12-10T05:42:45;99526.91;;;1.02;100.00
20145;BME280;10233;50.814;6.590;2022-12-10T05:43:46;99526.75;;;1.03;100.00
20145;BME280;10233;50.814;6.590;2022-12-10T05:44:47;99530.34;;;1.02;100.00
20145;BME280;10233;50.814;6.590;2022-12-10T05:45:48;99526.75;;;1.03;100.00
20145;BME280;10233;50.814;6.590;2022-12-10T05:46:48;99525.44;;;0.99;100.00
20145;BME280;10233;50.814;6.590;2022-12-10T05:47:50;99529.34;;;0.95;100.00